createdAt,value
2023-02-19T00:01:28.677Z,2.78
2023-02-19T00:03:58.732Z,2.76
2023-02-19T00:06:26.726Z,2.75
2023-02-19T00:08:56.730Z,2.74
2023-02-19T00:11:25.345Z,2.73
2023-02-19T00:13:53.069Z,2.72
2023-02-19T00:16:23.379Z,2.71
2023-02-19T00:18:50.212Z,2.68
2023-02-19T00:21:17.905Z,2.66
2023-02-19T00:23:50.105Z,2.63
2023-02-19T00:26:18.802Z,2.61
2023-02-19T00:28:47.381Z,2.59
2023-02-19T00:31:18.475Z,2.56
2023-02-19T00:33:46.442Z,2.53
2023-02-19T00:36:13.595Z,2.51
2023-02-19T00:38:41.625Z,2.49
2023-02-19T00:41:21.278Z,2.48
2023-02-19T00:43:49.834Z,2.46
2023-02-19T00:46:18.129Z,2.45
2023-02-19T00:48:46.180Z,2.45
2023-02-19T00:51:13.440Z,2.44
2023-02-19T00:53:43.370Z,2.42
2023-02-19T00:56:10.150Z,2.40
2023-02-19T00:58:36.820Z,2.39
2023-02-19T01:01:05.808Z,2.39
2023-02-19T01:03:36.140Z,2.40
2023-02-19T01:06:04.083Z,2.42
2023-02-19T01:08:31.616Z,2.43
2023-02-19T01:11:03.701Z,2.44
2023-02-19T01:13:30.993Z,2.44
2023-02-19T01:16:08.178Z,2.43
2023-02-19T01:18:35.683Z,2.42
2023-02-19T01:21:07.350Z,2.42
2023-02-19T01:23:36.514Z,2.42
2023-02-19T01:26:07.867Z,2.45
2023-02-19T01:28:35.129Z,2.45
2023-02-19T01:31:04.105Z,2.46
2023-02-19T01:33:32.119Z,2.47
2023-02-19T01:35:58.875Z,2.48
2023-02-19T01:38:26.257Z,2.49
2023-02-19T01:40:57.619Z,2.51
2023-02-19T01:43:24.842Z,2.51
2023-02-19T01:45:53.064Z,2.51
2023-02-19T01:48:25.519Z,2.51
2023-02-19T01:50:58.466Z,2.50
2023-02-19T01:53:27.787Z,2.48
2023-02-19T01:55:55.888Z,2.47
2023-02-19T01:58:24.167Z,2.46
2023-02-19T02:00:51.536Z,2.46
2023-02-19T02:03:20.026Z,2.47
2023-02-19T02:06:06.848Z,2.48
2023-02-19T02:08:52.508Z,2.47
2023-02-19T02:11:21.259Z,2.45
2023-02-19T02:13:49.252Z,2.45
2023-02-19T02:16:23.554Z,2.43
2023-02-19T02:18:57.204Z,2.42
2023-02-19T02:21:47.355Z,2.42
2023-02-19T02:24:52.394Z,2.42
2023-02-19T02:27:37.995Z,2.41
2023-02-19T02:30:07.180Z,2.40
2023-02-19T02:32:38.606Z,2.38
2023-02-19T02:35:10.941Z,2.37
2023-02-19T02:37:40.400Z,2.35
2023-02-19T02:40:08.058Z,2.34
2023-02-19T02:42:42.092Z,2.31
2023-02-19T02:45:36.084Z,2.31
2023-02-19T02:48:29.671Z,2.30
2023-02-19T02:51:16.002Z,2.29
2023-02-19T02:54:09.776Z,2.26
2023-02-19T02:56:37.636Z,2.20
2023-02-19T02:59:05.801Z,2.10
2023-02-19T03:02:13.431Z,1.99
2023-02-19T03:05:05.443Z,1.87
2023-02-19T03:07:41.051Z,1.76
2023-02-19T03:10:09.644Z,1.68
2023-02-19T03:12:56.148Z,1.60
2023-02-19T03:15:41.610Z,1.53
2023-02-19T03:18:27.032Z,1.44
2023-02-19T03:20:56.023Z,1.37
2023-02-19T03:23:46.029Z,1.31
2023-02-19T03:26:13.254Z,1.24
2023-02-19T03:29:03.893Z,1.20
2023-02-19T03:31:32.751Z,1.15
2023-02-19T03:34:03.434Z,1.09
2023-02-19T03:36:41.873Z,1.06
2023-02-19T03:39:09.086Z,1.01
2023-02-19T03:41:45.170Z,0.97
2023-02-19T03:44:49.961Z,0.95
2023-02-19T03:47:24.799Z,0.99
2023-02-19T03:50:19.657Z,1.04
2023-02-19T03:53:05.962Z,1.10
2023-02-19T03:55:52.442Z,1.14
2023-02-19T03:58:27.901Z,1.14
2023-02-19T04:00:58.086Z,1.10
2023-02-19T04:03:43.402Z,1.06
2023-02-19T04:06:13.512Z,0.99
2023-02-19T04:08:43.343Z,0.93
2023-02-19T04:11:10.520Z,0.88
2023-02-19T04:14:04.233Z,0.83
2023-02-19T04:16:31.139Z,0.79
2023-02-19T04:19:05.624Z,0.75
2023-02-19T04:21:33.060Z,0.70
2023-02-19T04:24:13.240Z,0.66
2023-02-19T04:26:40.327Z,0.62
2023-02-19T04:29:06.950Z,0.58
2023-02-19T04:31:35.311Z,0.54
2023-02-19T04:34:03.390Z,0.50
2023-02-19T04:36:32.178Z,0.46
2023-02-19T04:38:58.876Z,0.43
2023-02-19T04:41:26.155Z,0.39
2023-02-19T04:43:52.843Z,0.36
2023-02-19T04:46:20.362Z,0.32
2023-02-19T04:48:47.399Z,0.28
2023-02-19T04:51:14.022Z,0.24
2023-02-19T04:53:42.300Z,0.19
2023-02-19T04:56:13.754Z,0.16
2023-02-19T04:58:40.722Z,0.13
2023-02-19T05:01:08.718Z,0.11
2023-02-19T05:03:36.581Z,0.09
2023-02-19T05:06:04.656Z,0.08
2023-02-19T05:08:31.599Z,0.06
2023-02-19T05:11:00.446Z,0.05
2023-02-19T05:13:30.182Z,0.05
2023-02-19T05:16:02.779Z,0.07
2023-02-19T05:18:30.106Z,0.08
2023-02-19T05:20:57.301Z,0.12
2023-02-19T05:23:24.007Z,0.15
2023-02-19T05:25:50.817Z,0.20
2023-02-19T05:28:18.014Z,0.25
2023-02-19T05:30:51.464Z,0.30
2023-02-19T05:33:19.554Z,0.36
2023-02-19T05:35:51.848Z,0.43
2023-02-19T05:38:18.798Z,0.49
2023-02-19T05:40:45.745Z,0.56
2023-02-19T05:43:13.245Z,0.66
2023-02-19T05:45:42.398Z,0.78
2023-02-19T05:48:10.205Z,0.98
2023-02-19T05:50:39.451Z,1.55
2023-02-19T05:53:12.820Z,2.51
2023-02-19T05:55:39.524Z,3.46
2023-02-19T05:58:06.125Z,4.39
2023-02-19T06:00:33.316Z,5.35
2023-02-19T06:03:00.993Z,6.27
2023-02-19T06:05:27.860Z,7.14
2023-02-19T06:07:54.744Z,7.93
2023-02-19T06:10:22.229Z,8.67
2023-02-19T06:12:52.738Z,9.36
2023-02-19T06:15:20.542Z,9.99
2023-02-19T06:17:47.884Z,10.34
2023-02-19T06:20:14.879Z,10.78
2023-02-19T06:22:43.015Z,11.26
2023-02-19T06:25:12.349Z,11.67
2023-02-19T06:27:40.072Z,12.21
2023-02-19T06:30:08.556Z,12.69
2023-02-19T06:32:36.021Z,13.21
2023-02-19T06:35:03.393Z,13.67
2023-02-19T06:37:30.498Z,14.08
2023-02-19T06:39:57.342Z,14.49
2023-02-19T06:42:24.288Z,14.81
2023-02-19T06:44:51.131Z,15.16
2023-02-19T06:47:17.973Z,15.31
2023-02-19T06:49:44.760Z,15.51
2023-02-19T06:52:11.692Z,15.75
2023-02-19T06:54:38.816Z,16.09
2023-02-19T06:57:05.646Z,16.20
2023-02-19T06:59:32.344Z,16.45
2023-02-19T07:01:59.091Z,16.66
2023-02-19T07:04:25.796Z,16.45
2023-02-19T07:06:52.907Z,16.31
2023-02-19T07:09:19.750Z,16.32
2023-02-19T07:11:46.698Z,16.32
2023-02-19T07:14:17.190Z,16.49
2023-02-19T07:16:46.702Z,16.94
2023-02-19T07:19:14.422Z,17.25
2023-02-19T07:21:41.807Z,17.68
2023-02-19T07:24:09.338Z,17.96
2023-02-19T07:26:36.875Z,18.04
2023-02-19T07:29:04.454Z,18.15
2023-02-19T07:31:31.170Z,18.48
2023-02-19T07:33:57.927Z,18.71
2023-02-19T07:36:25.274Z,18.99
2023-02-19T07:38:56.078Z,19.31
2023-02-19T07:41:23.898Z,19.57
2023-02-19T07:43:51.364Z,19.68
2023-02-19T07:46:18.388Z,19.60
2023-02-19T07:48:50.022Z,19.49
2023-02-19T07:51:18.979Z,19.45
2023-02-19T07:53:46.381Z,19.43
2023-02-19T07:56:13.245Z,19.11
2023-02-19T07:58:40.028Z,18.04
2023-02-19T08:01:09.331Z,16.45
2023-02-19T08:03:37.145Z,14.49
2023-02-19T08:06:04.516Z,12.92
2023-02-19T08:08:31.442Z,11.94
2023-02-19T08:11:19.103Z,11.22
2023-02-19T08:13:48.991Z,10.70
2023-02-19T08:16:24.180Z,10.63
2023-02-19T08:18:59.061Z,10.73
2023-02-19T08:21:27.156Z,10.61
2023-02-19T08:23:54.042Z,10.22
2023-02-19T08:26:20.969Z,9.76
2023-02-19T08:28:48.135Z,9.39
2023-02-19T08:31:15.208Z,8.87
2023-02-19T08:33:42.521Z,8.40
2023-02-19T08:36:10.354Z,8.01
2023-02-19T08:38:38.050Z,7.67
2023-02-19T08:41:10.283Z,7.51
2023-02-19T08:43:37.543Z,7.39
2023-02-19T08:46:05.918Z,7.31
2023-02-19T08:48:33.414Z,7.21
2023-02-19T08:51:03.403Z,7.15
2023-02-19T08:53:31.122Z,7.30
2023-02-19T08:55:57.976Z,7.61
2023-02-19T08:58:27.590Z,7.81
2023-02-19T09:00:54.508Z,7.68
2023-02-19T09:03:22.022Z,7.45
2023-02-19T09:05:49.108Z,7.13
2023-02-19T09:08:25.154Z,6.88
2023-02-19T09:11:02.803Z,6.84
2023-02-19T09:13:30.452Z,6.89
2023-02-19T09:15:57.297Z,6.80
2023-02-19T09:18:25.034Z,6.71
2023-02-19T09:20:52.177Z,6.56
2023-02-19T09:23:19.277Z,6.36
2023-02-19T09:25:46.005Z,6.15
2023-02-19T09:28:12.904Z,5.90
2023-02-19T09:30:39.786Z,5.66
2023-02-19T09:33:06.602Z,5.36
2023-02-19T09:35:33.470Z,5.10
2023-02-19T09:38:02.866Z,4.89
2023-02-19T09:40:29.974Z,4.73
2023-02-19T09:43:00.909Z,4.61
2023-02-19T09:45:28.657Z,4.53
2023-02-19T09:47:56.674Z,4.47
2023-02-19T09:50:31.458Z,4.41
2023-02-19T09:53:00.803Z,4.37
2023-02-19T09:55:37.360Z,4.32
2023-02-19T09:58:31.682Z,4.17
2023-02-19T10:01:00.123Z,4.02
2023-02-19T10:03:38.568Z,4.01
2023-02-19T10:06:26.175Z,4.07
2023-02-19T10:09:15.123Z,4.12
2023-02-19T10:11:42.768Z,4.11
2023-02-19T10:14:35.247Z,4.15
2023-02-19T10:17:03.797Z,4.37
2023-02-19T10:19:35.008Z,4.58
2023-02-19T10:22:02.164Z,4.77
2023-02-19T10:24:29.956Z,4.99
2023-02-19T10:26:56.754Z,5.21
2023-02-19T10:29:24.281Z,5.41
2023-02-19T10:32:11.724Z,5.60
2023-02-19T10:34:38.985Z,5.78
2023-02-19T10:37:07.967Z,5.91
2023-02-19T10:39:43.246Z,5.95
2023-02-19T10:42:17.423Z,5.89
2023-02-19T10:44:46.016Z,5.83
2023-02-19T10:47:21.252Z,5.71
2023-02-19T10:49:52.507Z,5.64
2023-02-19T10:52:22.720Z,5.57
2023-02-19T10:54:51.799Z,5.53
2023-02-19T10:57:18.431Z,5.43
2023-02-19T10:59:52.913Z,5.39
2023-02-19T11:02:20.772Z,5.37
2023-02-19T11:05:01.637Z,5.35
2023-02-19T11:07:28.621Z,5.34
2023-02-19T11:09:55.641Z,5.35
2023-02-19T11:12:29.451Z,5.38
2023-02-19T11:15:19.284Z,5.40
2023-02-19T11:17:46.056Z,5.45
2023-02-19T11:20:14.942Z,5.45
2023-02-19T11:22:41.815Z,5.44
2023-02-19T11:25:14.565Z,5.45
2023-02-19T11:28:03.486Z,5.46
2023-02-19T11:30:35.581Z,5.38
2023-02-19T11:33:15.336Z,5.27
2023-02-19T11:35:46.541Z,5.17
2023-02-19T11:38:15.519Z,5.10
2023-02-19T11:41:22.494Z,5.02
2023-02-19T11:43:55.130Z,4.85
2023-02-19T11:46:37.349Z,4.69
2023-02-19T11:49:13.514Z,4.60
2023-02-19T11:52:02.125Z,4.55
2023-02-19T11:54:39.388Z,4.50
2023-02-19T11:57:09.618Z,4.48
2023-02-19T11:59:50.164Z,4.47
2023-02-19T12:02:53.594Z,4.51
2023-02-19T12:05:26.274Z,4.55
2023-02-19T12:08:09.913Z,4.61
2023-02-19T12:11:03.834Z,4.66
2023-02-19T12:13:54.745Z,4.68
2023-02-19T12:16:23.267Z,4.67
2023-02-19T12:18:56.775Z,4.67
2023-02-19T12:21:44.917Z,4.64
2023-02-19T12:24:46.298Z,4.57
2023-02-19T12:27:22.257Z,4.49
2023-02-19T12:29:55.257Z,4.42
2023-02-19T12:32:31.395Z,4.40
2023-02-19T12:35:07.541Z,4.42
2023-02-19T12:37:59.911Z,4.42
2023-02-19T12:40:49.774Z,4.40
2023-02-19T12:43:18.156Z,4.38
2023-02-19T12:45:51.766Z,4.36
2023-02-19T12:48:43.392Z,4.34
2023-02-19T12:51:23.638Z,4.29
2023-02-19T12:54:00.964Z,4.22
2023-02-19T12:56:31.464Z,4.16
2023-02-19T12:59:04.798Z,4.10
2023-02-19T13:01:41.159Z,4.03
2023-02-19T13:04:35.777Z,3.98
2023-02-19T13:07:09.069Z,4.01
2023-02-19T13:09:39.488Z,4.06
2023-02-19T13:12:14.707Z,4.08
2023-02-19T13:14:46.044Z,4.09
2023-02-19T13:17:19.823Z,4.11
2023-02-19T13:19:51.540Z,4.14
2023-02-19T13:22:52.214Z,4.15
2023-02-19T13:25:21.246Z,4.13
2023-02-19T13:28:23.697Z,4.15
2023-02-19T13:30:59.993Z,4.10
2023-02-19T13:34:02.428Z,4.04
2023-02-19T13:36:29.558Z,4.00
2023-02-19T13:38:59.412Z,3.98
2023-02-19T13:41:27.263Z,3.92
2023-02-19T13:43:55.926Z,3.90
2023-02-19T13:46:22.604Z,3.92
2023-02-19T13:48:49.541Z,3.91
2023-02-19T13:51:20.946Z,3.90
2023-02-19T13:53:51.169Z,3.88
2023-02-19T13:56:33.601Z,3.86
2023-02-19T13:59:10.477Z,3.84
2023-02-19T14:01:49.576Z,3.81
2023-02-19T14:05:02.020Z,3.80
2023-02-19T14:07:51.475Z,3.78
2023-02-19T14:10:49.570Z,3.77
2023-02-19T14:13:54.733Z,3.76
2023-02-19T14:16:27.648Z,3.73
2023-02-19T14:18:55.691Z,3.70
2023-02-19T14:21:27.537Z,3.68
2023-02-19T14:23:55.897Z,3.66
2023-02-19T14:26:24.648Z,3.64
2023-02-19T14:28:51.536Z,3.63
2023-02-19T14:31:26.435Z,3.61
2023-02-19T14:34:26.702Z,3.61
2023-02-19T14:37:01.269Z,3.59
2023-02-19T14:39:32.926Z,3.57
2023-02-19T14:42:01.334Z,3.52
2023-02-19T14:44:36.709Z,3.47
2023-02-19T14:47:08.496Z,3.42
2023-02-19T14:49:45.247Z,3.36
2023-02-19T14:52:16.635Z,3.33
2023-02-19T14:55:12.170Z,3.29
2023-02-19T14:57:40.648Z,3.26
2023-02-19T15:00:25.879Z,3.24
2023-02-19T15:02:59.039Z,3.21
2023-02-19T15:05:27.462Z,3.19
2023-02-19T15:08:16.291Z,3.16
2023-02-19T15:10:45.317Z,3.13
2023-02-19T15:13:18.175Z,3.10
2023-02-19T15:15:45.860Z,3.06
2023-02-19T15:18:21.014Z,3.02
2023-02-19T15:20:47.752Z,2.99
2023-02-19T15:23:21.527Z,2.96
2023-02-19T15:25:50.286Z,2.92
2023-02-19T15:28:23.318Z,2.90
2023-02-19T15:31:06.845Z,2.86
2023-02-19T15:33:34.890Z,2.82
2023-02-19T15:36:06.391Z,2.80
2023-02-19T15:38:33.464Z,2.79
2023-02-19T15:41:01.148Z,2.77
2023-02-19T15:43:33.331Z,2.75
2023-02-19T15:46:06.478Z,2.72
2023-02-19T15:48:39.076Z,2.69
2023-02-19T15:51:09.116Z,2.67
2023-02-19T15:53:45.564Z,2.64
2023-02-19T15:56:27.710Z,2.61
2023-02-19T15:59:03.727Z,2.58
2023-02-19T16:01:37.222Z,2.55
2023-02-19T16:04:08.241Z,2.53
2023-02-19T16:06:52.265Z,2.52
2023-02-19T16:09:20.827Z,2.52
2023-02-19T16:11:50.664Z,2.51
2023-02-19T16:14:28.353Z,2.49
2023-02-19T16:16:57.847Z,2.48
2023-02-19T16:19:29.695Z,2.46
2023-02-19T16:21:56.744Z,2.45
2023-02-19T16:24:28.112Z,2.43
2023-02-19T16:26:56.394Z,2.42
2023-02-19T16:29:29.031Z,2.39
2023-02-19T16:32:06.276Z,2.37
2023-02-19T16:34:39.321Z,2.34
2023-02-19T16:37:38.462Z,2.33
2023-02-19T16:40:08.419Z,2.32
2023-02-19T16:42:35.721Z,2.30
2023-02-19T16:45:02.369Z,2.29
2023-02-19T16:47:32.878Z,2.30
2023-02-19T16:50:01.087Z,2.29
2023-02-19T16:52:28.119Z,2.28
2023-02-19T16:54:54.765Z,2.28
2023-02-19T16:57:21.703Z,2.27
2023-02-19T16:59:48.609Z,2.25
2023-02-19T17:02:18.118Z,2.24
2023-02-19T17:04:45.648Z,2.21
2023-02-19T17:07:17.134Z,2.19
2023-02-19T17:09:43.938Z,2.17
2023-02-19T17:12:12.668Z,2.16
2023-02-19T17:14:39.380Z,2.15
2023-02-19T17:17:06.400Z,2.14
2023-02-19T17:19:33.315Z,2.14
2023-02-19T17:22:00.078Z,2.13
2023-02-19T17:24:26.766Z,2.11
2023-02-19T17:26:57.442Z,2.07
2023-02-19T17:29:25.679Z,2.01
2023-02-19T17:31:52.764Z,1.91
2023-02-19T17:34:19.689Z,1.81
2023-02-19T17:36:47.558Z,1.71
2023-02-19T17:39:14.627Z,1.62
2023-02-19T17:41:41.702Z,1.52
2023-02-19T17:44:08.849Z,1.47
2023-02-19T17:46:36.492Z,1.41
2023-02-19T17:49:03.412Z,1.41
2023-02-19T17:51:31.470Z,1.41
2023-02-19T17:53:58.087Z,1.42
2023-02-19T17:56:25.963Z,1.43
2023-02-19T17:58:54.127Z,1.45
2023-02-19T18:01:21.253Z,1.46
2023-02-19T18:03:48.982Z,1.47
2023-02-19T18:06:16.017Z,1.48
2023-02-19T18:08:50.583Z,1.51
2023-02-19T18:11:17.553Z,1.54
2023-02-19T18:13:45.471Z,1.57
2023-02-19T18:16:14.969Z,1.59
2023-02-19T18:18:42.367Z,1.60
2023-02-19T18:21:09.522Z,1.62
2023-02-19T18:23:37.812Z,1.64
2023-02-19T18:26:08.007Z,1.65
2023-02-19T18:28:35.189Z,1.66
2023-02-19T18:31:02.140Z,1.65
2023-02-19T18:33:29.354Z,1.65
2023-02-19T18:35:56.488Z,1.64
2023-02-19T18:38:24.714Z,1.61
2023-02-19T18:40:51.583Z,1.56
2023-02-19T18:43:18.883Z,1.49
2023-02-19T18:45:46.307Z,1.41
2023-02-19T18:48:13.346Z,1.32
2023-02-19T18:50:40.108Z,1.23
2023-02-19T18:53:09.230Z,1.15
2023-02-19T18:55:36.427Z,1.08
2023-02-19T18:58:03.105Z,1.02
2023-02-19T19:00:30.347Z,0.97
2023-02-19T19:02:57.679Z,0.91
2023-02-19T19:05:24.895Z,0.86
2023-02-19T19:07:53.463Z,0.82
2023-02-19T19:10:20.901Z,0.78
2023-02-19T19:12:48.222Z,0.73
2023-02-19T19:15:18.053Z,0.68
2023-02-19T19:17:46.080Z,0.63
2023-02-19T19:20:13.190Z,0.58
2023-02-19T19:22:40.126Z,0.54
2023-02-19T19:25:08.208Z,0.50
2023-02-19T19:27:39.953Z,0.48
2023-02-19T19:30:07.538Z,0.47
2023-02-19T19:32:34.306Z,0.46
2023-02-19T19:35:01.022Z,0.45
2023-02-19T19:37:28.770Z,0.44
2023-02-19T19:39:56.565Z,0.43
2023-02-19T19:42:23.367Z,0.41
2023-02-19T19:44:50.085Z,0.41
2023-02-19T19:47:17.074Z,0.41
2023-02-19T19:49:46.614Z,0.43
2023-02-19T19:52:13.318Z,0.45
2023-02-19T19:54:42.534Z,0.47
2023-02-19T19:57:09.372Z,0.51
2023-02-19T19:59:38.549Z,0.56
2023-02-19T20:02:05.798Z,0.58
2023-02-19T20:04:32.552Z,0.60
2023-02-19T20:06:59.697Z,0.61
2023-02-19T20:09:29.935Z,0.61
2023-02-19T20:11:56.645Z,0.61
2023-02-19T20:14:23.735Z,0.61
2023-02-19T20:16:52.456Z,0.58
2023-02-19T20:19:19.653Z,0.56
2023-02-19T20:21:47.233Z,0.52
2023-02-19T20:24:15.462Z,0.47
2023-02-19T20:26:42.499Z,0.40
2023-02-19T20:29:09.895Z,0.33
2023-02-19T20:31:37.835Z,0.26
2023-02-19T20:34:04.975Z,0.17
2023-02-19T20:36:32.180Z,0.10
2023-02-19T20:38:58.927Z,0.04
2023-02-19T20:41:25.824Z,-0.02
2023-02-19T20:43:52.612Z,-0.09
2023-02-19T20:46:19.686Z,-0.14
2023-02-19T20:48:46.375Z,-0.21
2023-02-19T20:51:13.241Z,-0.26
2023-02-19T20:53:40.835Z,-0.29
2023-02-19T20:56:07.486Z,-0.33
2023-02-19T20:58:34.629Z,-0.37
2023-02-19T21:01:04.817Z,-0.40
2023-02-19T21:03:32.488Z,-0.44
2023-02-19T21:05:59.317Z,-0.49
2023-02-19T21:08:32.804Z,-0.53
2023-02-19T21:10:59.698Z,-0.56
2023-02-19T21:13:27.613Z,-0.60
2023-02-19T21:15:55.756Z,-0.62
2023-02-19T21:18:22.743Z,-0.66
2023-02-19T21:20:50.207Z,-0.69
2023-02-19T21:23:17.278Z,-0.70
2023-02-19T21:25:43.839Z,-0.72
2023-02-19T21:28:11.955Z,-0.72
2023-02-19T21:30:38.820Z,-0.73
2023-02-19T21:33:05.741Z,-0.75
2023-02-19T21:35:32.819Z,-0.77
2023-02-19T21:37:59.734Z,-0.82
2023-02-19T21:40:28.462Z,-0.84
2023-02-19T21:42:55.669Z,-0.85
2023-02-19T21:45:22.740Z,-0.86
2023-02-19T21:47:54.512Z,-0.86
2023-02-19T21:50:21.834Z,-0.86
2023-02-19T21:52:48.665Z,-0.89
2023-02-19T21:55:15.648Z,-0.92
2023-02-19T21:57:42.600Z,-0.95
2023-02-19T22:00:10.946Z,-0.99
2023-02-19T22:02:37.833Z,-1.01
2023-02-19T22:05:04.880Z,-1.05
2023-02-19T22:07:31.914Z,-1.07
2023-02-19T22:09:58.642Z,-1.10
2023-02-19T22:12:25.427Z,-1.14
2023-02-19T22:14:52.711Z,-1.17
2023-02-19T22:17:20.113Z,-1.20
2023-02-19T22:19:46.984Z,-1.24
2023-02-19T22:22:13.694Z,-1.27
2023-02-19T22:24:40.376Z,-1.30
2023-02-19T22:27:07.119Z,-1.33
2023-02-19T22:29:34.184Z,-1.37
2023-02-19T22:32:01.698Z,-1.41
2023-02-19T22:34:28.982Z,-1.44
2023-02-19T22:36:57.438Z,-1.46
2023-02-19T22:39:43.918Z,-1.46
2023-02-19T22:42:10.639Z,-1.48
2023-02-19T22:44:38.566Z,-1.49
2023-02-19T22:47:09.941Z,-1.52
2023-02-19T22:49:37.972Z,-1.53
2023-02-19T22:52:08.235Z,-1.56
2023-02-19T22:54:35.563Z,-1.59
2023-02-19T22:57:03.360Z,-1.62
2023-02-19T22:59:31.103Z,-1.64
2023-02-19T23:01:57.792Z,-1.66
2023-02-19T23:04:24.932Z,-1.68
2023-02-19T23:06:51.804Z,-1.70
2023-02-19T23:09:26.723Z,-1.72
2023-02-19T23:12:03.881Z,-1.76
2023-02-19T23:14:31.955Z,-1.78
2023-02-19T23:16:58.633Z,-1.80
2023-02-19T23:19:25.652Z,-1.81
2023-02-19T23:21:52.561Z,-1.82
2023-02-19T23:24:19.460Z,-1.84
2023-02-19T23:26:47.898Z,-1.86
2023-02-19T23:29:16.062Z,-1.89
2023-02-19T23:31:42.796Z,-1.91
2023-02-19T23:34:09.770Z,-1.93
2023-02-19T23:36:41.890Z,-1.93
2023-02-19T23:39:13.398Z,-1.95
2023-02-19T23:41:51.314Z,-1.96
2023-02-19T23:44:18.307Z,-1.99
2023-02-19T23:46:45.004Z,-2.00
2023-02-19T23:49:11.886Z,-2.00
2023-02-19T23:51:38.725Z,-2.00
2023-02-19T23:54:05.545Z,-1.99
2023-02-19T23:56:33.098Z,-1.99
2023-02-19T23:59:00.012Z,-2.00
